sensor_id;sensor_type;location;lat;lon;timestamp;P1;durP1;ratioP1;P2;durP2;ratioP2
19923;SDS011;10124;53.068;18.224;2022-10-13T00:00:59;39.47;;;19.00;;
19923;SDS011;10124;53.068;18.224;2022-10-13T00:03:36;31.37;;;17.87;;
19923;SDS011;10124;53.068;18.224;2022-10-13T00:06:07;29.30;;;17.97;;
19923;SDS011;10124;53.068;18.224;2022-10-13T00:08:36;29.30;;;18.00;;
19923;SDS011;10124;53.068;18.224;2022-10-13T00:11:24;30.77;;;17.53;;
19923;SDS011;10124;53.068;18.224;2022-10-13T00:13:55;32.63;;;18.80;;
19923;SDS011;10124;53.068;18.224;2022-10-13T00:16:29;38.67;;;15.83;;
19923;SDS011;10124;53.068;18.224;2022-10-13T00:18:58;33.40;;;17.13;;
19923;SDS011;10124;53.068;18.224;2022-10-13T00:21:26;28.30;;;16.13;;
19923;SDS011;10124;53.068;18.224;2022-10-13T00:23:54;24.10;;;14.17;;
19923;SDS011;10124;53.068;18.224;2022-10-13T00:26:23;32.97;;;16.17;;
19923;SDS011;10124;53.068;18.224;2022-10-13T00:28:52;24.17;;;15.13;;
19923;SDS011;10124;53.068;18.224;2022-10-13T00:31:23;27.47;;;16.40;;
19923;SDS011;10124;53.068;18.224;2022-10-13T00:33:53;28.50;;;15.63;;
19923;SDS011;10124;53.068;18.224;2022-10-13T00:36:22;25.43;;;14.07;;
19923;SDS011;10124;53.068;18.224;2022-10-13T00:38:50;25.63;;;15.17;;
19923;SDS011;10124;53.068;18.224;2022-10-13T00:41:19;38.43;;;17.10;;
19923;SDS011;10124;53.068;18.224;2022-10-13T00:44:03;26.80;;;14.53;;
19923;SDS011;10124;53.068;18.224;2022-10-13T00:46:34;26.73;;;15.33;;
19923;SDS011;10124;53.068;18.224;2022-10-13T00:49:03;26.00;;;14.03;;
19923;SDS011;10124;53.068;18.224;2022-10-13T00:51:37;29.60;;;15.83;;
19923;SDS011;10124;53.068;18.224;2022-10-13T00:54:07;24.83;;;14.57;;
19923;SDS011;10124;53.068;18.224;2022-10-13T00:56:37;26.63;;;15.27;;
19923;SDS011;10124;53.068;18.224;2022-10-13T00:59:08;24.93;;;14.20;;
19923;SDS011;10124;53.068;18.224;2022-10-13T01:01:41;29.27;;;14.93;;
19923;SDS011;10124;53.068;18.224;2022-10-13T01:04:08;26.67;;;14.77;;
19923;SDS011;10124;53.068;18.224;2022-10-13T01:06:36;25.83;;;13.57;;
19923;SDS011;10124;53.068;18.224;2022-10-13T01:09:07;23.60;;;13.17;;
19923;SDS011;10124;53.068;18.224;2022-10-13T01:14:47;29.63;;;14.10;;
19923;SDS011;10124;53.068;18.224;2022-10-13T01:20:24;27.70;;;14.57;;
19923;SDS011;10124;53.068;18.224;2022-10-13T01:23:43;26.53;;;14.57;;
19923;SDS011;10124;53.068;18.224;2022-10-13T01:26:41;21.80;;;13.40;;
19923;SDS011;10124;53.068;18.224;2022-10-13T01:32:19;21.77;;;14.07;;
19923;SDS011;10124;53.068;18.224;2022-10-13T01:37:42;27.20;;;14.80;;
19923;SDS011;10124;53.068;18.224;2022-10-13T01:40:21;58.87;;;29.80;;
19923;SDS011;10124;53.068;18.224;2022-10-13T01:45:41;41.20;;;20.47;;
19923;SDS011;10124;53.068;18.224;2022-10-13T01:48:15;43.53;;;21.80;;
19923;SDS011;10124;53.068;18.224;2022-10-13T01:50:47;40.10;;;18.63;;
19923;SDS011;10124;53.068;18.224;2022-10-13T01:53:16;28.93;;;14.80;;
19923;SDS011;10124;53.068;18.224;2022-10-13T01:55:50;25.97;;;14.30;;
19923;SDS011;10124;53.068;18.224;2022-10-13T01:58:19;24.50;;;13.87;;
19923;SDS011;10124;53.068;18.224;2022-10-13T02:00:52;29.67;;;14.77;;
19923;SDS011;10124;53.068;18.224;2022-10-13T02:06:31;29.20;;;14.70;;
19923;SDS011;10124;53.068;18.224;2022-10-13T02:09:17;26.23;;;15.07;;
19923;SDS011;10124;53.068;18.224;2022-10-13T02:12:08;23.37;;;14.13;;
19923;SDS011;10124;53.068;18.224;2022-10-13T02:14:52;27.03;;;15.10;;
19923;SDS011;10124;53.068;18.224;2022-10-13T02:17:22;28.13;;;16.17;;
19923;SDS011;10124;53.068;18.224;2022-10-13T02:19:52;23.80;;;13.77;;
19923;SDS011;10124;53.068;18.224;2022-10-13T02:22:21;34.90;;;14.47;;
19923;SDS011;10124;53.068;18.224;2022-10-13T02:24:54;28.33;;;14.03;;
19923;SDS011;10124;53.068;18.224;2022-10-13T02:27:21;23.93;;;14.07;;
19923;SDS011;10124;53.068;18.224;2022-10-13T02:29:53;25.57;;;12.43;;
19923;SDS011;10124;53.068;18.224;2022-10-13T02:32:28;18.90;;;11.70;;
19923;SDS011;10124;53.068;18.224;2022-10-13T02:34:55;20.43;;;12.50;;
19923;SDS011;10124;53.068;18.224;2022-10-13T02:37:23;22.80;;;13.50;;
19923;SDS011;10124;53.068;18.224;2022-10-13T02:39:51;23.13;;;13.13;;
19923;SDS011;10124;53.068;18.224;2022-10-13T02:42:19;23.37;;;13.23;;
19923;SDS011;10124;53.068;18.224;2022-10-13T02:44:46;25.70;;;13.27;;
19923;SDS011;10124;53.068;18.224;2022-10-13T02:47:14;24.50;;;14.37;;
19923;SDS011;10124;53.068;18.224;2022-10-13T02:49:41;19.67;;;12.53;;
19923;SDS011;10124;53.068;18.224;2022-10-13T02:52:09;31.13;;;13.83;;
19923;SDS011;10124;53.068;18.224;2022-10-13T02:54:40;23.73;;;13.27;;
19923;SDS011;10124;53.068;18.224;2022-10-13T02:57:08;21.27;;;13.33;;
19923;SDS011;10124;53.068;18.224;2022-10-13T02:59:35;27.50;;;14.70;;
19923;SDS011;10124;53.068;18.224;2022-10-13T03:02:03;23.03;;;14.93;;
19923;SDS011;10124;53.068;18.224;2022-10-13T03:04:30;23.53;;;15.73;;
19923;SDS011;10124;53.068;18.224;2022-10-13T03:06:59;25.80;;;14.90;;
19923;SDS011;10124;53.068;18.224;2022-10-13T03:09:26;25.73;;;15.97;;
19923;SDS011;10124;53.068;18.224;2022-10-13T03:11:53;21.47;;;14.87;;
19923;SDS011;10124;53.068;18.224;2022-10-13T03:14:21;26.80;;;16.17;;
19923;SDS011;10124;53.068;18.224;2022-10-13T03:16:48;31.70;;;17.47;;
19923;SDS011;10124;53.068;18.224;2022-10-13T03:19:18;27.47;;;16.23;;
19923;SDS011;10124;53.068;18.224;2022-10-13T03:21:46;28.47;;;17.80;;
19923;SDS011;10124;53.068;18.224;2022-10-13T03:24:13;27.03;;;17.23;;
19923;SDS011;10124;53.068;18.224;2022-10-13T03:26:41;26.23;;;16.77;;
19923;SDS011;10124;53.068;18.224;2022-10-13T03:29:11;27.37;;;17.30;;
19923;SDS011;10124;53.068;18.224;2022-10-13T03:31:41;27.80;;;16.50;;
19923;SDS011;10124;53.068;18.224;2022-10-13T03:34:09;27.97;;;17.30;;
19923;SDS011;10124;53.068;18.224;2022-10-13T03:36:37;30.73;;;17.83;;
19923;SDS011;10124;53.068;18.224;2022-10-13T03:39:05;25.57;;;16.57;;
19923;SDS011;10124;53.068;18.224;2022-10-13T03:41:32;28.20;;;17.57;;
19923;SDS011;10124;53.068;18.224;2022-10-13T03:44:00;26.13;;;18.10;;
19923;SDS011;10124;53.068;18.224;2022-10-13T03:46:29;29.03;;;19.13;;
19923;SDS011;10124;53.068;18.224;2022-10-13T03:48:57;26.13;;;17.73;;
19923;SDS011;10124;53.068;18.224;2022-10-13T03:51:26;29.83;;;18.67;;
19923;SDS011;10124;53.068;18.224;2022-10-13T03:53:54;31.93;;;19.83;;
19923;SDS011;10124;53.068;18.224;2022-10-13T03:56:22;32.57;;;19.80;;
19923;SDS011;10124;53.068;18.224;2022-10-13T03:58:57;32.20;;;19.83;;
19923;SDS011;10124;53.068;18.224;2022-10-13T04:01:27;31.67;;;20.37;;
19923;SDS011;10124;53.068;18.224;2022-10-13T04:03:56;35.47;;;20.50;;
19923;SDS011;10124;53.068;18.224;2022-10-13T04:06:25;31.83;;;21.77;;
19923;SDS011;10124;53.068;18.224;2022-10-13T04:08:53;32.70;;;20.23;;
19923;SDS011;10124;53.068;18.224;2022-10-13T04:11:21;35.17;;;20.63;;
19923;SDS011;10124;53.068;18.224;2022-10-13T04:13:54;29.90;;;20.77;;
19923;SDS011;10124;53.068;18.224;2022-10-13T04:16:24;32.23;;;19.33;;
19923;SDS011;10124;53.068;18.224;2022-10-13T04:18:59;33.17;;;21.17;;
19923;SDS011;10124;53.068;18.224;2022-10-13T04:21:29;37.03;;;21.60;;
19923;SDS011;10124;53.068;18.224;2022-10-13T04:23:59;34.60;;;20.23;;
19923;SDS011;10124;53.068;18.224;2022-10-13T04:26:28;33.97;;;22.23;;
19923;SDS011;10124;53.068;18.224;2022-10-13T04:29:05;38.07;;;22.47;;
19923;SDS011;10124;53.068;18.224;2022-10-13T04:31:35;34.20;;;23.57;;
19923;SDS011;10124;53.068;18.224;2022-10-13T04:34:03;42.07;;;26.77;;
19923;SDS011;10124;53.068;18.224;2022-10-13T04:36:30;39.63;;;24.23;;
19923;SDS011;10124;53.068;18.224;2022-10-13T04:38:58;40.23;;;25.37;;
19923;SDS011;10124;53.068;18.224;2022-10-13T04:41:25;45.20;;;27.53;;
19923;SDS011;10124;53.068;18.224;2022-10-13T04:43:53;45.33;;;28.43;;
19923;SDS011;10124;53.068;18.224;2022-10-13T04:46:22;43.00;;;29.93;;
19923;SDS011;10124;53.068;18.224;2022-10-13T04:48:53;46.63;;;29.27;;
19923;SDS011;10124;53.068;18.224;2022-10-13T04:51:27;50.27;;;29.60;;
19923;SDS011;10124;53.068;18.224;2022-10-13T04:53:55;44.53;;;27.40;;
19923;SDS011;10124;53.068;18.224;2022-10-13T04:56:24;40.00;;;27.53;;
19923;SDS011;10124;53.068;18.224;2022-10-13T04:58:52;47.30;;;28.17;;
19923;SDS011;10124;53.068;18.224;2022-10-13T05:01:21;46.10;;;28.57;;
19923;SDS011;10124;53.068;18.224;2022-10-13T05:03:50;42.23;;;27.03;;
19923;SDS011;10124;53.068;18.224;2022-10-13T05:06:24;44.97;;;27.03;;
19923;SDS011;10124;53.068;18.224;2022-10-13T05:08:56;36.20;;;24.03;;
19923;SDS011;10124;53.068;18.224;2022-10-13T05:11:24;45.37;;;28.23;;
19923;SDS011;10124;53.068;18.224;2022-10-13T05:13:53;50.00;;;28.93;;
19923;SDS011;10124;53.068;18.224;2022-10-13T05:16:21;57.63;;;32.63;;
19923;SDS011;10124;53.068;18.224;2022-10-13T05:18:50;67.47;;;39.37;;
19923;SDS011;10124;53.068;18.224;2022-10-13T05:21:22;79.30;;;43.40;;
19923;SDS011;10124;53.068;18.224;2022-10-13T05:23:51;68.07;;;40.67;;
19923;SDS011;10124;53.068;18.224;2022-10-13T05:26:23;70.33;;;41.93;;
19923;SDS011;10124;53.068;18.224;2022-10-13T05:28:55;67.43;;;41.17;;
19923;SDS011;10124;53.068;18.224;2022-10-13T05:31:29;64.67;;;39.33;;
19923;SDS011;10124;53.068;18.224;2022-10-13T05:33:59;70.90;;;39.00;;
19923;SDS011;10124;53.068;18.224;2022-10-13T05:36:30;70.90;;;39.33;;
19923;SDS011;10124;53.068;18.224;2022-10-13T05:39:03;63.60;;;35.90;;
19923;SDS011;10124;53.068;18.224;2022-10-13T05:41:33;53.23;;;31.17;;
19923;SDS011;10124;53.068;18.224;2022-10-13T05:44:05;52.87;;;33.40;;
19923;SDS011;10124;53.068;18.224;2022-10-13T05:46:38;77.37;;;38.03;;
19923;SDS011;10124;53.068;18.224;2022-10-13T05:49:06;74.60;;;39.03;;
19923;SDS011;10124;53.068;18.224;2022-10-13T05:51:34;85.30;;;38.77;;
19923;SDS011;10124;53.068;18.224;2022-10-13T05:56:36;70.03;;;36.33;;
19923;SDS011;10124;53.068;18.224;2022-10-13T05:59:06;126.47;;;63.73;;
19923;SDS011;10124;53.068;18.224;2022-10-13T06:01:38;145.30;;;69.50;;
19923;SDS011;10124;53.068;18.224;2022-10-13T06:04:09;135.60;;;70.47;;
19923;SDS011;10124;53.068;18.224;2022-10-13T06:06:41;127.10;;;68.50;;
19923;SDS011;10124;53.068;18.224;2022-10-13T06:09:09;121.60;;;66.97;;
19923;SDS011;10124;53.068;18.224;2022-10-13T06:11:38;103.27;;;56.47;;
19923;SDS011;10124;53.068;18.224;2022-10-13T06:14:05;92.70;;;53.63;;
19923;SDS011;10124;53.068;18.224;2022-10-13T06:16:33;98.87;;;52.53;;
19923;SDS011;10124;53.068;18.224;2022-10-13T06:19:03;88.63;;;47.13;;
19923;SDS011;10124;53.068;18.224;2022-10-13T06:21:33;83.87;;;41.07;;
19923;SDS011;10124;53.068;18.224;2022-10-13T06:24:01;61.47;;;35.37;;
19923;SDS011;10124;53.068;18.224;2022-10-13T06:26:28;45.83;;;27.57;;
19923;SDS011;10124;53.068;18.224;2022-10-13T06:28:56;45.30;;;27.70;;
19923;SDS011;10124;53.068;18.224;2022-10-13T06:31:26;44.10;;;26.40;;
19923;SDS011;10124;53.068;18.224;2022-10-13T06:33:54;38.97;;;24.87;;
19923;SDS011;10124;53.068;18.224;2022-10-13T06:36:22;45.90;;;27.40;;
19923;SDS011;10124;53.068;18.224;2022-10-13T06:38:50;47.37;;;27.97;;
19923;SDS011;10124;53.068;18.224;2022-10-13T06:41:20;52.73;;;30.97;;
19923;SDS011;10124;53.068;18.224;2022-10-13T06:43:47;63.70;;;35.80;;
19923;SDS011;10124;53.068;18.224;2022-10-13T06:46:15;55.63;;;32.07;;
19923;SDS011;10124;53.068;18.224;2022-10-13T06:48:43;66.63;;;33.13;;
19923;SDS011;10124;53.068;18.224;2022-10-13T06:51:10;56.43;;;34.13;;
19923;SDS011;10124;53.068;18.224;2022-10-13T06:53:37;57.40;;;31.40;;
19923;SDS011;10124;53.068;18.224;2022-10-13T06:56:06;48.90;;;29.67;;
19923;SDS011;10124;53.068;18.224;2022-10-13T06:58:35;54.47;;;30.57;;
19923;SDS011;10124;53.068;18.224;2022-10-13T07:01:03;53.23;;;29.40;;
19923;SDS011;10124;53.068;18.224;2022-10-13T07:03:32;53.57;;;31.80;;
19923;SDS011;10124;53.068;18.224;2022-10-13T07:06:00;46.23;;;30.27;;
19923;SDS011;10124;53.068;18.224;2022-10-13T07:08:29;50.80;;;30.83;;
19923;SDS011;10124;53.068;18.224;2022-10-13T07:10:57;54.57;;;31.27;;
19923;SDS011;10124;53.068;18.224;2022-10-13T07:13:24;54.87;;;31.87;;
19923;SDS011;10124;53.068;18.224;2022-10-13T07:15:52;57.60;;;29.70;;
19923;SDS011;10124;53.068;18.224;2022-10-13T07:18:19;55.67;;;29.87;;
19923;SDS011;10124;53.068;18.224;2022-10-13T07:20:46;54.27;;;30.90;;
19923;SDS011;10124;53.068;18.224;2022-10-13T07:23:14;54.07;;;30.57;;
19923;SDS011;10124;53.068;18.224;2022-10-13T07:25:41;54.63;;;29.43;;
19923;SDS011;10124;53.068;18.224;2022-10-13T07:28:09;59.80;;;30.47;;
19923;SDS011;10124;53.068;18.224;2022-10-13T07:30:37;62.43;;;30.37;;
19923;SDS011;10124;53.068;18.224;2022-10-13T07:33:05;53.10;;;28.77;;
19923;SDS011;10124;53.068;18.224;2022-10-13T07:35:33;55.77;;;30.00;;
19923;SDS011;10124;53.068;18.224;2022-10-13T07:38:00;52.93;;;30.20;;
19923;SDS011;10124;53.068;18.224;2022-10-13T07:40:27;53.97;;;29.53;;
19923;SDS011;10124;53.068;18.224;2022-10-13T07:42:55;60.10;;;28.37;;
19923;SDS011;10124;53.068;18.224;2022-10-13T07:45:23;56.17;;;25.37;;
19923;SDS011;10124;53.068;18.224;2022-10-13T07:47:51;44.70;;;25.60;;
19923;SDS011;10124;53.068;18.224;2022-10-13T07:50:19;48.37;;;28.43;;
19923;SDS011;10124;53.068;18.224;2022-10-13T07:52:46;45.53;;;27.00;;
19923;SDS011;10124;53.068;18.224;2022-10-13T07:55:13;54.47;;;26.97;;
19923;SDS011;10124;53.068;18.224;2022-10-13T07:57:41;44.10;;;25.43;;
19923;SDS011;10124;53.068;18.224;2022-10-13T08:00:09;43.47;;;24.90;;
19923;SDS011;10124;53.068;18.224;2022-10-13T08:02:39;43.27;;;24.97;;
19923;SDS011;10124;53.068;18.224;2022-10-13T08:05:07;42.47;;;21.40;;
19923;SDS011;10124;53.068;18.224;2022-10-13T08:07:34;37.73;;;21.27;;
19923;SDS011;10124;53.068;18.224;2022-10-13T08:10:05;33.90;;;19.63;;
19923;SDS011;10124;53.068;18.224;2022-10-13T08:12:36;30.23;;;19.07;;
19923;SDS011;10124;53.068;18.224;2022-10-13T08:15:05;40.93;;;18.20;;
19923;SDS011;10124;53.068;18.224;2022-10-13T08:17:33;32.13;;;17.63;;
19923;SDS011;10124;53.068;18.224;2022-10-13T08:20:01;28.57;;;15.20;;
19923;SDS011;10124;53.068;18.224;2022-10-13T08:22:29;31.00;;;14.67;;
19923;SDS011;10124;53.068;18.224;2022-10-13T08:25:00;29.70;;;13.07;;
19923;SDS011;10124;53.068;18.224;2022-10-13T08:27:28;23.70;;;12.63;;
19923;SDS011;10124;53.068;18.224;2022-10-13T08:30:15;19.83;;;11.32;;
19923;SDS011;10124;53.068;18.224;2022-10-13T08:32:43;21.80;;;11.02;;
19923;SDS011;10124;53.068;18.224;2022-10-13T08:35:10;19.85;;;9.18;;
19923;SDS011;10124;53.068;18.224;2022-10-13T08:37:38;20.45;;;9.88;;
19923;SDS011;10124;53.068;18.224;2022-10-13T08:40:05;26.77;;;9.88;;
19923;SDS011;10124;53.068;18.224;2022-10-13T08:42:34;21.00;;;9.93;;
19923;SDS011;10124;53.068;18.224;2022-10-13T08:45:03;14.93;;;8.30;;
19923;SDS011;10124;53.068;18.224;2022-10-13T08:47:52;17.67;;;8.70;;
19923;SDS011;10124;53.068;18.224;2022-10-13T08:50:28;15.65;;;8.18;;
19923;SDS011;10124;53.068;18.224;2022-10-13T08:53:06;19.40;;;8.63;;
19923;SDS011;10124;53.068;18.224;2022-10-13T08:55:48;17.23;;;8.20;;
19923;SDS011;10124;53.068;18.224;2022-10-13T08:58:25;14.85;;;6.93;;
19923;SDS011;10124;53.068;18.224;2022-10-13T09:01:12;18.10;;;8.10;;
19923;SDS011;10124;53.068;18.224;2022-10-13T09:06:53;13.73;;;6.95;;
19923;SDS011;10124;53.068;18.224;2022-10-13T09:09:37;16.58;;;7.07;;
19923;SDS011;10124;53.068;18.224;2022-10-13T09:12:08;15.75;;;6.38;;
19923;SDS011;10124;53.068;18.224;2022-10-13T09:14:41;16.40;;;6.57;;
19923;SDS011;10124;53.068;18.224;2022-10-13T09:17:21;14.32;;;6.95;;
19923;SDS011;10124;53.068;18.224;2022-10-13T09:20:14;15.93;;;6.55;;
19923;SDS011;10124;53.068;18.224;2022-10-13T09:23:01;16.80;;;6.88;;
19923;SDS011;10124;53.068;18.224;2022-10-13T09:25:40;16.05;;;6.63;;
19923;SDS011;10124;53.068;18.224;2022-10-13T09:28:31;11.82;;;6.20;;
19923;SDS011;10124;53.068;18.224;2022-10-13T09:31:11;13.15;;;6.55;;
19923;SDS011;10124;53.068;18.224;2022-10-13T09:33:55;14.75;;;6.60;;
19923;SDS011;10124;53.068;18.224;2022-10-13T09:36:28;18.58;;;7.25;;
19923;SDS011;10124;53.068;18.224;2022-10-13T09:39:04;10.95;;;6.13;;
19923;SDS011;10124;53.068;18.224;2022-10-13T09:41:40;15.55;;;6.75;;
19923;SDS011;10124;53.068;18.224;2022-10-13T09:44:10;16.52;;;6.38;;
19923;SDS011;10124;53.068;18.224;2022-10-13T09:46:45;17.50;;;6.90;;
19923;SDS011;10124;53.068;18.224;2022-10-13T09:49:38;15.88;;;6.97;;
19923;SDS011;10124;53.068;18.224;2022-10-13T09:57:11;11.05;;;5.55;;
19923;SDS011;10124;53.068;18.224;2022-10-13T09:59:45;14.90;;;6.90;;
19923;SDS011;10124;53.068;18.224;2022-10-13T10:02:21;15.45;;;6.63;;
19923;SDS011;10124;53.068;18.224;2022-10-13T10:05:00;15.05;;;6.90;;
19923;SDS011;10124;53.068;18.224;2022-10-13T10:07:33;16.10;;;6.75;;
19923;SDS011;10124;53.068;18.224;2022-10-13T10:10:46;21.45;;;6.60;;
19923;SDS011;10124;53.068;18.224;2022-10-13T10:12:52;15.30;;;6.88;;
19923;SDS011;10124;53.068;18.224;2022-10-13T10:15:27;22.08;;;6.95;;
19923;SDS011;10124;53.068;18.224;2022-10-13T10:18:06;18.98;;;6.90;;
19923;SDS011;10124;53.068;18.224;2022-10-13T10:20:43;20.13;;;7.32;;
19923;SDS011;10124;53.068;18.224;2022-10-13T10:23:32;13.98;;;6.78;;
19923;SDS011;10124;53.068;18.224;2022-10-13T10:26:07;37.38;;;7.47;;
19923;SDS011;10124;53.068;18.224;2022-10-13T10:40:20;16.52;;;6.25;;
19923;SDS011;10124;53.068;18.224;2022-10-13T10:42:53;19.27;;;6.07;;
19923;SDS011;10124;53.068;18.224;2022-10-13T10:45:33;15.18;;;6.15;;
19923;SDS011;10124;53.068;18.224;2022-10-13T10:48:28;10.25;;;5.20;;
19923;SDS011;10124;53.068;18.224;2022-10-13T10:51:02;18.50;;;5.50;;
19923;SDS011;10124;53.068;18.224;2022-10-13T10:53:47;11.40;;;5.65;;
19923;SDS011;10124;53.068;18.224;2022-10-13T10:56:33;10.45;;;4.57;;
19923;SDS011;10124;53.068;18.224;2022-10-13T11:02:02;11.88;;;4.13;;
19923;SDS011;10124;53.068;18.224;2022-10-13T11:04:46;10.80;;;4.97;;
19923;SDS011;10124;53.068;18.224;2022-10-13T11:12:22;10.05;;;3.70;;
19923;SDS011;10124;53.068;18.224;2022-10-13T11:15:01;11.00;;;3.90;;
19923;SDS011;10124;53.068;18.224;2022-10-13T11:17:36;13.63;;;3.88;;
19923;SDS011;10124;53.068;18.224;2022-10-13T11:25:38;8.23;;;3.40;;
19923;SDS011;10124;53.068;18.224;2022-10-13T11:28:55;11.30;;;3.75;;
19923;SDS011;10124;53.068;18.224;2022-10-13T11:47:49;8.75;;;4.70;;
19923;SDS011;10124;53.068;18.224;2022-10-13T11:50:25;16.83;;;4.03;;
19923;SDS011;10124;53.068;18.224;2022-10-13T11:58:20;14.55;;;4.13;;
19923;SDS011;10124;53.068;18.224;2022-10-13T12:00:55;58.65;;;6.07;;
19923;SDS011;10124;53.068;18.224;2022-10-13T12:03:36;8.73;;;3.33;;
19923;SDS011;10124;53.068;18.224;2022-10-13T12:06:22;9.25;;;3.70;;
19923;SDS011;10124;53.068;18.224;2022-10-13T12:09:17;12.65;;;3.70;;
19923;SDS011;10124;53.068;18.224;2022-10-13T12:11:54;22.10;;;10.88;;
19923;SDS011;10124;53.068;18.224;2022-10-13T12:14:44;14.07;;;4.22;;
19923;SDS011;10124;53.068;18.224;2022-10-13T12:20:00;18.48;;;4.28;;
19923;SDS011;10124;53.068;18.224;2022-10-13T12:22:46;10.27;;;3.75;;
19923;SDS011;10124;53.068;18.224;2022-10-13T12:25:18;8.63;;;3.15;;
19923;SDS011;10124;53.068;18.224;2022-10-13T12:27:56;7.18;;;2.92;;
19923;SDS011;10124;53.068;18.224;2022-10-13T12:32:57;21.38;;;3.15;;
19923;SDS011;10124;53.068;18.224;2022-10-13T12:35:32;31.90;;;4.40;;
19923;SDS011;10124;53.068;18.224;2022-10-13T12:38:02;13.35;;;3.40;;
19923;SDS011;10124;53.068;18.224;2022-10-13T12:40:34;10.77;;;3.33;;
19923;SDS011;10124;53.068;18.224;2022-10-13T12:43:04;7.90;;;3.13;;
19923;SDS011;10124;53.068;18.224;2022-10-13T12:45:32;11.73;;;3.38;;
19923;SDS011;10124;53.068;18.224;2022-10-13T12:48:02;20.30;;;3.65;;
19923;SDS011;10124;53.068;18.224;2022-10-13T12:53:20;9.43;;;3.42;;
19923;SDS011;10124;53.068;18.224;2022-10-13T12:55:57;11.73;;;3.67;;
19923;SDS011;10124;53.068;18.224;2022-10-13T12:58:31;11.35;;;3.33;;
19923;SDS011;10124;53.068;18.224;2022-10-13T13:01:05;10.00;;;3.70;;
19923;SDS011;10124;53.068;18.224;2022-10-13T13:03:41;11.20;;;3.60;;
19923;SDS011;10124;53.068;18.224;2022-10-13T13:08:41;7.65;;;3.40;;
19923;SDS011;10124;53.068;18.224;2022-10-13T13:11:23;17.02;;;4.25;;
19923;SDS011;10124;53.068;18.224;2022-10-13T13:20:17;13.00;;;3.80;;
19923;SDS011;10124;53.068;18.224;2022-10-13T13:22:46;6.20;;;3.38;;
19923;SDS011;10124;53.068;18.224;2022-10-13T13:25:14;14.73;;;6.13;;
19923;SDS011;10124;53.068;18.224;2022-10-13T13:27:41;22.95;;;8.88;;
19923;SDS011;10124;53.068;18.224;2022-10-13T13:30:14;11.35;;;3.78;;
19923;SDS011;10124;53.068;18.224;2022-10-13T13:32:43;13.07;;;6.00;;
19923;SDS011;10124;53.068;18.224;2022-10-13T13:35:11;14.90;;;5.60;;
19923;SDS011;10124;53.068;18.224;2022-10-13T13:40:13;14.13;;;4.43;;
19923;SDS011;10124;53.068;18.224;2022-10-13T13:42:42;7.32;;;3.35;;
19923;SDS011;10124;53.068;18.224;2022-10-13T13:45:14;21.85;;;9.02;;
19923;SDS011;10124;53.068;18.224;2022-10-13T13:47:43;23.75;;;8.88;;
19923;SDS011;10124;53.068;18.224;2022-10-13T13:50:21;10.23;;;4.68;;
19923;SDS011;10124;53.068;18.224;2022-10-13T13:52:57;7.70;;;3.47;;
19923;SDS011;10124;53.068;18.224;2022-10-13T13:55:26;10.23;;;4.13;;
19923;SDS011;10124;53.068;18.224;2022-10-13T13:57:54;8.70;;;3.13;;
19923;SDS011;10124;53.068;18.224;2022-10-13T14:00:22;14.00;;;3.65;;
19923;SDS011;10124;53.068;18.224;2022-10-13T14:02:54;13.73;;;4.60;;
19923;SDS011;10124;53.068;18.224;2022-10-13T14:05:22;10.40;;;4.05;;
19923;SDS011;10124;53.068;18.224;2022-10-13T14:07:51;9.90;;;3.83;;
19923;SDS011;10124;53.068;18.224;2022-10-13T14:10:24;15.23;;;3.70;;
19923;SDS011;10124;53.068;18.224;2022-10-13T14:12:55;11.13;;;3.97;;
19923;SDS011;10124;53.068;18.224;2022-10-13T14:15:25;15.27;;;4.38;;
19923;SDS011;10124;53.068;18.224;2022-10-13T14:17:56;13.32;;;3.83;;
19923;SDS011;10124;53.068;18.224;2022-10-13T14:20:25;9.68;;;3.38;;
19923;SDS011;10124;53.068;18.224;2022-10-13T14:22:53;9.02;;;3.53;;
19923;SDS011;10124;53.068;18.224;2022-10-13T14:25:23;12.57;;;4.10;;
19923;SDS011;10124;53.068;18.224;2022-10-13T14:27:53;8.32;;;3.35;;
19923;SDS011;10124;53.068;18.224;2022-10-13T14:30:23;8.60;;;3.55;;
19923;SDS011;10124;53.068;18.224;2022-10-13T14:32:53;8.82;;;3.65;;
19923;SDS011;10124;53.068;18.224;2022-10-13T14:35:25;10.18;;;3.75;;
19923;SDS011;10124;53.068;18.224;2022-10-13T14:37:55;13.48;;;4.22;;
19923;SDS011;10124;53.068;18.224;2022-10-13T14:40:25;13.35;;;4.03;;
19923;SDS011;10124;53.068;18.224;2022-10-13T14:42:53;11.80;;;3.58;;
19923;SDS011;10124;53.068;18.224;2022-10-13T14:45:23;20.42;;;4.43;;
19923;SDS011;10124;53.068;18.224;2022-10-13T14:47:53;16.17;;;4.05;;
19923;SDS011;10124;53.068;18.224;2022-10-13T14:50:24;7.28;;;4.00;;
19923;SDS011;10124;53.068;18.224;2022-10-13T14:52:55;17.33;;;4.65;;
19923;SDS011;10124;53.068;18.224;2022-10-13T14:55:28;14.60;;;3.80;;
19923;SDS011;10124;53.068;18.224;2022-10-13T14:58:00;12.15;;;4.25;;
19923;SDS011;10124;53.068;18.224;2022-10-13T15:00:31;12.07;;;4.10;;
19923;SDS011;10124;53.068;18.224;2022-10-13T15:03:01;18.23;;;5.38;;
19923;SDS011;10124;53.068;18.224;2022-10-13T15:05:29;15.80;;;4.45;;
19923;SDS011;10124;53.068;18.224;2022-10-13T15:07:59;19.27;;;4.57;;
19923;SDS011;10124;53.068;18.224;2022-10-13T15:10:27;44.65;;;8.90;;
19923;SDS011;10124;53.068;18.224;2022-10-13T15:12:58;17.45;;;6.38;;
19923;SDS011;10124;53.068;18.224;2022-10-13T15:15:25;21.83;;;7.00;;
19923;SDS011;10124;53.068;18.224;2022-10-13T15:17:53;12.50;;;4.63;;
19923;SDS011;10124;53.068;18.224;2022-10-13T15:20:21;401.57;;;59.97;;
19923;SDS011;10124;53.068;18.224;2022-10-13T15:22:48;61.43;;;12.27;;
19923;SDS011;10124;53.068;18.224;2022-10-13T15:25:19;20.93;;;7.10;;
19923;SDS011;10124;53.068;18.224;2022-10-13T15:27:49;27.53;;;6.60;;
19923;SDS011;10124;53.068;18.224;2022-10-13T15:30:17;11.87;;;5.43;;
19923;SDS011;10124;53.068;18.224;2022-10-13T15:32:47;20.77;;;6.80;;
19923;SDS011;10124;53.068;18.224;2022-10-13T15:35:19;18.40;;;5.90;;
19923;SDS011;10124;53.068;18.224;2022-10-13T15:37:49;17.63;;;4.57;;
19923;SDS011;10124;53.068;18.224;2022-10-13T15:40:19;19.70;;;5.17;;
19923;SDS011;10124;53.068;18.224;2022-10-13T15:42:48;21.70;;;5.80;;
19923;SDS011;10124;53.068;18.224;2022-10-13T15:45:19;13.90;;;5.47;;
19923;SDS011;10124;53.068;18.224;2022-10-13T15:47:50;34.10;;;8.60;;
19923;SDS011;10124;53.068;18.224;2022-10-13T15:50:20;30.87;;;7.70;;
19923;SDS011;10124;53.068;18.224;2022-10-13T15:52:51;374.47;;;59.43;;
19923;SDS011;10124;53.068;18.224;2022-10-13T15:55:22;91.27;;;15.03;;
19923;SDS011;10124;53.068;18.224;2022-10-13T15:57:52;32.87;;;8.43;;
19923;SDS011;10124;53.068;18.224;2022-10-13T16:00:23;23.23;;;6.57;;
19923;SDS011;10124;53.068;18.224;2022-10-13T16:02:53;20.93;;;5.70;;
19923;SDS011;10124;53.068;18.224;2022-10-13T16:05:23;27.30;;;6.40;;
19923;SDS011;10124;53.068;18.224;2022-10-13T16:07:54;37.97;;;14.87;;
19923;SDS011;10124;53.068;18.224;2022-10-13T16:10:24;109.97;;;30.87;;
19923;SDS011;10124;53.068;18.224;2022-10-13T16:12:55;41.87;;;15.43;;
19923;SDS011;10124;53.068;18.224;2022-10-13T16:15:25;115.30;;;32.67;;